sensor_id;sensor_type;location;lat;lon;timestamp;temperature;humidity
19003;DHT22;9634;51.040;13.794;2022-08-07T00:01:59;14.20;99.90
19003;DHT22;9634;51.040;13.794;2022-08-07T00:07:01;14.20;99.90
19003;DHT22;9634;51.040;13.794;2022-08-07T00:12:04;14.20;99.90
19003;DHT22;9634;51.040;13.794;2022-08-07T00:17:08;14.10;99.90
19003;DHT22;9634;51.040;13.794;2022-08-07T00:22:10;14.10;99.90
19003;DHT22;9634;51.040;13.794;2022-08-07T00:27:12;14.00;99.90
19003;DHT22;9634;51.040;13.794;2022-08-07T00:32:16;13.90;99.90
19003;DHT22;9634;51.040;13.794;2022-08-07T00:37:19;13.90;99.90
19003;DHT22;9634;51.040;13.794;2022-08-07T00:42:21;13.90;99.90
19003;DHT22;9634;51.040;13.794;2022-08-07T00:47:25;13.90;99.90
19003;DHT22;9634;51.040;13.794;2022-08-07T00:52:27;13.80;99.90
19003;DHT22;9634;51.040;13.794;2022-08-07T00:57:30;13.80;99.90
19003;DHT22;9634;51.040;13.794;2022-08-07T01:02:34;13.80;99.90
19003;DHT22;9634;51.040;13.794;2022-08-07T01:07:36;13.80;99.90
19003;DHT22;9634;51.040;13.794;2022-08-07T01:12:41;13.90;99.90
19003;DHT22;9634;51.040;13.794;2022-08-07T01:17:45;13.70;99.90
19003;DHT22;9634;51.040;13.794;2022-08-07T01:22:49;13.70;99.90
19003;DHT22;9634;51.040;13.794;2022-08-07T01:27:52;13.60;99.90
19003;DHT22;9634;51.040;13.794;2022-08-07T01:32:56;13.50;99.90
19003;DHT22;9634;51.040;13.794;2022-08-07T01:38:00;13.40;99.90
19003;DHT22;9634;51.040;13.794;2022-08-07T01:43:03;13.20;99.90
19003;DHT22;9634;51.040;13.794;2022-08-07T01:48:06;13.10;99.90
19003;DHT22;9634;51.040;13.794;2022-08-07T01:53:11;13.00;99.90
19003;DHT22;9634;51.040;13.794;2022-08-07T01:58:20;12.90;99.90
19003;DHT22;9634;51.040;13.794;2022-08-07T02:03:24;12.70;99.90
19003;DHT22;9634;51.040;13.794;2022-08-07T02:08:34;12.70;99.90
19003;DHT22;9634;51.040;13.794;2022-08-07T02:13:41;12.70;99.90
19003;DHT22;9634;51.040;13.794;2022-08-07T02:18:46;12.60;99.90
19003;DHT22;9634;51.040;13.794;2022-08-07T02:23:52;12.60;99.90
19003;DHT22;9634;51.040;13.794;2022-08-07T02:28:55;12.50;99.90
19003;DHT22;9634;51.040;13.794;2022-08-07T02:34:00;12.50;99.90
19003;DHT22;9634;51.040;13.794;2022-08-07T02:39:06;12.40;99.90
19003;DHT22;9634;51.040;13.794;2022-08-07T02:44:11;12.30;99.90
19003;DHT22;9634;51.040;13.794;2022-08-07T02:49:14;12.20;99.90
19003;DHT22;9634;51.040;13.794;2022-08-07T02:54:19;12.10;99.90
19003;DHT22;9634;51.040;13.794;2022-08-07T02:59:25;12.10;99.90
19003;DHT22;9634;51.040;13.794;2022-08-07T03:04:31;12.10;99.90
19003;DHT22;9634;51.040;13.794;2022-08-07T03:09:36;12.00;99.90
19003;DHT22;9634;51.040;13.794;2022-08-07T03:14:38;11.90;99.90
19003;DHT22;9634;51.040;13.794;2022-08-07T03:19:44;11.80;99.90
19003;DHT22;9634;51.040;13.794;2022-08-07T03:24:49;11.80;99.90
19003;DHT22;9634;51.040;13.794;2022-08-07T03:29:52;11.70;99.90
19003;DHT22;9634;51.040;13.794;2022-08-07T03:35:00;11.50;99.90
19003;DHT22;9634;51.040;13.794;2022-08-07T03:40:08;11.50;99.90
19003;DHT22;9634;51.040;13.794;2022-08-07T03:45:11;11.60;99.90
19003;DHT22;9634;51.040;13.794;2022-08-07T03:50:15;11.70;99.90
19003;DHT22;9634;51.040;13.794;2022-08-07T03:55:21;11.70;99.90
19003;DHT22;9634;51.040;13.794;2022-08-07T04:00:24;11.80;99.90
19003;DHT22;9634;51.040;13.794;2022-08-07T04:05:28;11.70;99.90
19003;DHT22;9634;51.040;13.794;2022-08-07T04:10:33;11.60;99.90
19003;DHT22;9634;51.040;13.794;2022-08-07T04:15:37;11.60;99.90
19003;DHT22;9634;51.040;13.794;2022-08-07T04:20:40;11.60;99.90
19003;DHT22;9634;51.040;13.794;2022-08-07T04:25:44;11.80;99.90
19003;DHT22;9634;51.040;13.794;2022-08-07T04:30:47;12.00;99.90
19003;DHT22;9634;51.040;13.794;2022-08-07T04:35:55;12.00;99.90
19003;DHT22;9634;51.040;13.794;2022-08-07T04:41:02;12.00;99.90
19003;DHT22;9634;51.040;13.794;2022-08-07T04:46:16;12.20;99.90
19003;DHT22;9634;51.040;13.794;2022-08-07T04:51:23;12.30;99.90
19003;DHT22;9634;51.040;13.794;2022-08-07T04:56:37;12.50;99.90
19003;DHT22;9634;51.040;13.794;2022-08-07T05:01:48;12.70;99.90
19003;DHT22;9634;51.040;13.794;2022-08-07T05:06:57;12.80;99.90
19003;DHT22;9634;51.040;13.794;2022-08-07T05:12:08;12.80;99.90
19003;DHT22;9634;51.040;13.794;2022-08-07T05:17:17;13.00;99.90
19003;DHT22;9634;51.040;13.794;2022-08-07T05:22:22;13.10;99.90
19003;DHT22;9634;51.040;13.794;2022-08-07T05:27:28;13.30;99.90
19003;DHT22;9634;51.040;13.794;2022-08-07T05:32:31;13.40;99.90
19003;DHT22;9634;51.040;13.794;2022-08-07T05:37:34;13.70;99.90
19003;DHT22;9634;51.040;13.794;2022-08-07T05:42:42;13.80;99.90
19003;DHT22;9634;51.040;13.794;2022-08-07T05:47:45;14.00;99.90
19003;DHT22;9634;51.040;13.794;2022-08-07T05:52:47;14.20;99.90
19003;DHT22;9634;51.040;13.794;2022-08-07T05:57:52;14.50;99.90
19003;DHT22;9634;51.040;13.794;2022-08-07T06:02:56;14.90;99.90
19003;DHT22;9634;51.040;13.794;2022-08-07T06:08:01;15.10;99.90
19003;DHT22;9634;51.040;13.794;2022-08-07T06:13:06;15.20;99.90
19003;DHT22;9634;51.040;13.794;2022-08-07T06:18:11;15.50;99.90
19003;DHT22;9634;51.040;13.794;2022-08-07T06:23:14;15.80;99.90
19003;DHT22;9634;51.040;13.794;2022-08-07T06:28:20;16.00;99.90
19003;DHT22;9634;51.040;13.794;2022-08-07T06:33:23;16.30;99.90
19003;DHT22;9634;51.040;13.794;2022-08-07T06:38:26;16.60;99.90
19003;DHT22;9634;51.040;13.794;2022-08-07T06:43:32;16.80;99.90
19003;DHT22;9634;51.040;13.794;2022-08-07T06:48:42;17.00;99.90
19003;DHT22;9634;51.040;13.794;2022-08-07T06:53:45;17.20;99.90
19003;DHT22;9634;51.040;13.794;2022-08-07T06:58:52;17.50;99.90
19003;DHT22;9634;51.040;13.794;2022-08-07T07:03:55;17.80;99.90
19003;DHT22;9634;51.040;13.794;2022-08-07T07:09:15;18.00;99.90
19003;DHT22;9634;51.040;13.794;2022-08-07T07:14:22;18.30;99.90
19003;DHT22;9634;51.040;13.794;2022-08-07T07:19:29;18.60;99.10
19003;DHT22;9634;51.040;13.794;2022-08-07T07:24:33;18.90;99.10
19003;DHT22;9634;51.040;13.794;2022-08-07T07:29:44;19.30;97.20
19003;DHT22;9634;51.040;13.794;2022-08-07T07:34:50;19.60;93.70
19003;DHT22;9634;51.040;13.794;2022-08-07T07:39:57;19.80;91.60
19003;DHT22;9634;51.040;13.794;2022-08-07T07:45:03;20.10;91.00
19003;DHT22;9634;51.040;13.794;2022-08-07T07:50:08;20.20;87.00
19003;DHT22;9634;51.040;13.794;2022-08-07T07:55:11;20.30;86.00
19003;DHT22;9634;51.040;13.794;2022-08-07T08:00:16;20.50;81.60
19003;DHT22;9634;51.040;13.794;2022-08-07T08:05:20;20.70;79.70
19003;DHT22;9634;51.040;13.794;2022-08-07T08:10:22;20.90;74.90
19003;DHT22;9634;51.040;13.794;2022-08-07T08:15:27;21.00;71.00
19003;DHT22;9634;51.040;13.794;2022-08-07T08:20:31;21.40;68.00
19003;DHT22;9634;51.040;13.794;2022-08-07T08:25:38;21.60;64.20
19003;DHT22;9634;51.040;13.794;2022-08-07T08:31:00;21.70;60.30
19003;DHT22;9634;51.040;13.794;2022-08-07T08:36:04;21.80;59.20
19003;DHT22;9634;51.040;13.794;2022-08-07T08:41:13;22.20;56.40
19003;DHT22;9634;51.040;13.794;2022-08-07T08:46:23;22.60;49.00
19003;DHT22;9634;51.040;13.794;2022-08-07T08:51:31;22.40;48.10
19003;DHT22;9634;51.040;13.794;2022-08-07T08:56:36;22.60;48.60
19003;DHT22;9634;51.040;13.794;2022-08-07T09:01:45;23.20;45.60
19003;DHT22;9634;51.040;13.794;2022-08-07T09:06:57;23.50;42.70
19003;DHT22;9634;51.040;13.794;2022-08-07T09:12:11;23.50;40.80
19003;DHT22;9634;51.040;13.794;2022-08-07T09:17:28;25.90;37.30
19003;DHT22;9634;51.040;13.794;2022-08-07T09:22:51;27.70;30.70
19003;DHT22;9634;51.040;13.794;2022-08-07T09:28:00;28.80;27.00
19003;DHT22;9634;51.040;13.794;2022-08-07T09:33:14;30.60;22.60
19003;DHT22;9634;51.040;13.794;2022-08-07T09:38:27;31.70;19.60
19003;DHT22;9634;51.040;13.794;2022-08-07T09:43:55;31.90;18.00
19003;DHT22;9634;51.040;13.794;2022-08-07T09:49:23;31.60;18.30
19003;DHT22;9634;51.040;13.794;2022-08-07T09:54:34;34.50;14.70
19003;DHT22;9634;51.040;13.794;2022-08-07T09:59:52;35.60;12.40
19003;DHT22;9634;51.040;13.794;2022-08-07T10:05:21;36.90;10.50
19003;DHT22;9634;51.040;13.794;2022-08-07T10:10:39;38.60;7.90
19003;DHT22;9634;51.040;13.794;2022-08-07T10:16:03;38.90;6.50
19003;DHT22;9634;51.040;13.794;2022-08-07T10:21:20;39.80;5.40
19003;DHT22;9634;51.040;13.794;2022-08-07T10:26:43;36.00;7.60
19003;DHT22;9634;51.040;13.794;2022-08-07T10:32:04;34.20;9.20
19003;DHT22;9634;51.040;13.794;2022-08-07T10:37:27;36.50;7.90
19003;DHT22;9634;51.040;13.794;2022-08-07T10:42:35;40.00;5.50
19003;DHT22;9634;51.040;13.794;2022-08-07T10:47:44;37.40;6.30
19003;DHT22;9634;51.040;13.794;2022-08-07T10:52:53;32.90;10.10
19003;DHT22;9634;51.040;13.794;2022-08-07T10:58:04;35.40;7.90
19003;DHT22;9634;51.040;13.794;2022-08-07T11:03:15;40.20;5.30
19003;DHT22;9634;51.040;13.794;2022-08-07T11:08:31;42.60;2.80
19003;DHT22;9634;51.040;13.794;2022-08-07T11:13:38;44.40;1.10
19003;DHT22;9634;51.040;13.794;2022-08-07T11:18:49;45.30;1.00
19003;DHT22;9634;51.040;13.794;2022-08-07T11:23:58;46.20;1.00
19003;DHT22;9634;51.040;13.794;2022-08-07T11:29:05;47.40;1.00
19003;DHT22;9634;51.040;13.794;2022-08-07T11:34:16;47.80;1.00
19003;DHT22;9634;51.040;13.794;2022-08-07T11:39:34;47.90;1.00
19003;DHT22;9634;51.040;13.794;2022-08-07T11:44:49;49.00;1.00
19003;DHT22;9634;51.040;13.794;2022-08-07T11:50:06;47.00;1.00
19003;DHT22;9634;51.040;13.794;2022-08-07T11:55:25;48.20;1.00
19003;DHT22;9634;51.040;13.794;2022-08-07T12:00:35;50.00;1.00
19003;DHT22;9634;51.040;13.794;2022-08-07T12:05:45;50.80;1.00
19003;DHT22;9634;51.040;13.794;2022-08-07T12:10:54;50.40;1.00
19003;DHT22;9634;51.040;13.794;2022-08-07T12:16:02;51.50;1.00
19003;DHT22;9634;51.040;13.794;2022-08-07T12:21:15;51.30;1.00
19003;DHT22;9634;51.040;13.794;2022-08-07T12:26:28;52.70;1.00
19003;DHT22;9634;51.040;13.794;2022-08-07T12:31:37;54.30;1.00
19003;DHT22;9634;51.040;13.794;2022-08-07T12:36:42;51.80;1.00
19003;DHT22;9634;51.040;13.794;2022-08-07T12:41:48;52.40;1.00
19003;DHT22;9634;51.040;13.794;2022-08-07T12:47:05;52.20;1.00
19003;DHT22;9634;51.040;13.794;2022-08-07T12:52:12;52.70;1.00
19003;DHT22;9634;51.040;13.794;2022-08-07T12:57:16;54.60;1.00
19003;DHT22;9634;51.040;13.794;2022-08-07T13:02:45;54.90;1.00
19003;DHT22;9634;51.040;13.794;2022-08-07T13:08:20;55.80;1.00
19003;DHT22;9634;51.040;13.794;2022-08-07T13:13:35;56.60;1.00
19003;DHT22;9634;51.040;13.794;2022-08-07T13:18:49;56.90;1.00
19003;DHT22;9634;51.040;13.794;2022-08-07T13:24:00;57.40;1.00
19003;DHT22;9634;51.040;13.794;2022-08-07T13:29:10;57.40;1.00
19003;DHT22;9634;51.040;13.794;2022-08-07T13:34:22;58.00;1.00
19003;DHT22;9634;51.040;13.794;2022-08-07T13:39:34;58.20;1.00
19003;DHT22;9634;51.040;13.794;2022-08-07T13:44:39;57.60;1.00
19003;DHT22;9634;51.040;13.794;2022-08-07T13:49:44;56.70;1.00
19003;DHT22;9634;51.040;13.794;2022-08-07T13:54:47;57.30;1.00
19003;DHT22;9634;51.040;13.794;2022-08-07T13:59:52;58.60;1.00
19003;DHT22;9634;51.040;13.794;2022-08-07T14:05:05;58.20;1.00
19003;DHT22;9634;51.040;13.794;2022-08-07T14:10:09;57.80;1.00
19003;DHT22;9634;51.040;13.794;2022-08-07T14:15:19;56.20;1.00
19003;DHT22;9634;51.040;13.794;2022-08-07T14:20:29;56.50;1.00
19003;DHT22;9634;51.040;13.794;2022-08-07T14:25:33;57.60;1.00
19003;DHT22;9634;51.040;13.794;2022-08-07T14:30:37;57.20;1.00
19003;DHT22;9634;51.040;13.794;2022-08-07T14:35:41;57.00;1.00
19003;DHT22;9634;51.040;13.794;2022-08-07T14:40:43;57.40;1.00
19003;DHT22;9634;51.040;13.794;2022-08-07T14:45:49;58.00;1.00
19003;DHT22;9634;51.040;13.794;2022-08-07T14:50:53;57.70;1.00
19003;DHT22;9634;51.040;13.794;2022-08-07T14:55:56;58.70;1.00
19003;DHT22;9634;51.040;13.794;2022-08-07T15:01:05;58.90;1.00
19003;DHT22;9634;51.040;13.794;2022-08-07T15:06:10;59.10;1.00
19003;DHT22;9634;51.040;13.794;2022-08-07T15:11:13;58.60;1.00
19003;DHT22;9634;51.040;13.794;2022-08-07T15:16:18;56.00;1.00
19003;DHT22;9634;51.040;13.794;2022-08-07T15:21:26;54.60;1.00
19003;DHT22;9634;51.040;13.794;2022-08-07T15:26:35;54.30;1.00
19003;DHT22;9634;51.040;13.794;2022-08-07T15:31:41;55.40;1.00
19003;DHT22;9634;51.040;13.794;2022-08-07T15:36:45;56.00;1.00
19003;DHT22;9634;51.040;13.794;2022-08-07T15:41:59;55.50;1.00
19003;DHT22;9634;51.040;13.794;2022-08-07T15:47:05;55.60;1.00
19003;DHT22;9634;51.040;13.794;2022-08-07T15:52:10;54.80;1.00
19003;DHT22;9634;51.040;13.794;2022-08-07T15:57:18;54.70;1.00
19003;DHT22;9634;51.040;13.794;2022-08-07T16:02:26;55.00;1.00
19003;DHT22;9634;51.040;13.794;2022-08-07T16:07:31;53.90;1.00
19003;DHT22;9634;51.040;13.794;2022-08-07T16:12:41;53.00;1.00
19003;DHT22;9634;51.040;13.794;2022-08-07T16:17:57;53.70;1.00
19003;DHT22;9634;51.040;13.794;2022-08-07T16:23:17;53.70;1.00
19003;DHT22;9634;51.040;13.794;2022-08-07T16:28:31;51.20;1.00
19003;DHT22;9634;51.040;13.794;2022-08-07T16:33:38;50.80;1.00
19003;DHT22;9634;51.040;13.794;2022-08-07T16:39:03;50.20;1.00
19003;DHT22;9634;51.040;13.794;2022-08-07T16:44:34;50.60;1.00
19003;DHT22;9634;51.040;13.794;2022-08-07T16:55:35;48.90;1.00
19003;DHT22;9634;51.040;13.794;2022-08-07T17:00:41;48.60;1.00
19003;DHT22;9634;51.040;13.794;2022-08-07T17:05:56;47.50;1.00
19003;DHT22;9634;51.040;13.794;2022-08-07T17:11:08;46.10;1.00
19003;DHT22;9634;51.040;13.794;2022-08-07T17:16:15;45.50;1.00
19003;DHT22;9634;51.040;13.794;2022-08-07T17:21:21;44.60;1.00
19003;DHT22;9634;51.040;13.794;2022-08-07T17:26:31;44.00;1.00
19003;DHT22;9634;51.040;13.794;2022-08-07T17:31:48;42.50;1.00
19003;DHT22;9634;51.040;13.794;2022-08-07T17:36:53;40.70;1.00
19003;DHT22;9634;51.040;13.794;2022-08-07T17:42:00;39.50;1.00
19003;DHT22;9634;51.040;13.794;2022-08-07T17:47:08;38.20;1.20
19003;DHT22;9634;51.040;13.794;2022-08-07T17:52:18;37.20;2.10
19003;DHT22;9634;51.040;13.794;2022-08-07T17:57:30;36.60;2.60
19003;DHT22;9634;51.040;13.794;2022-08-07T18:02:40;35.40;3.80
19003;DHT22;9634;51.040;13.794;2022-08-07T18:07:51;34.10;4.90
19003;DHT22;9634;51.040;13.794;2022-08-07T18:13:19;33.30;5.90
19003;DHT22;9634;51.040;13.794;2022-08-07T18:18:31;31.30;7.50
19003;DHT22;9634;51.040;13.794;2022-08-07T18:23:44;30.00;9.10
19003;DHT22;9634;51.040;13.794;2022-08-07T18:29:06;29.00;10.40
19003;DHT22;9634;51.040;13.794;2022-08-07T18:34:21;27.60;12.10
19003;DHT22;9634;51.040;13.794;2022-08-07T18:39:46;25.70;14.50
19003;DHT22;9634;51.040;13.794;2022-08-07T18:45:00;24.30;16.90
19003;DHT22;9634;51.040;13.794;2022-08-07T18:50:26;23.20;18.70
19003;DHT22;9634;51.040;13.794;2022-08-07T18:55:40;22.50;20.00
19003;DHT22;9634;51.040;13.794;2022-08-07T19:00:49;21.80;21.90
19003;DHT22;9634;51.040;13.794;2022-08-07T19:05:59;21.70;26.80
19003;DHT22;9634;51.040;13.794;2022-08-07T19:11:08;21.50;24.40
19003;DHT22;9634;51.040;13.794;2022-08-07T19:16:26;21.30;25.70
19003;DHT22;9634;51.040;13.794;2022-08-07T19:21:39;20.90;24.50
19003;DHT22;9634;51.040;13.794;2022-08-07T19:26:48;20.70;25.80
19003;DHT22;9634;51.040;13.794;2022-08-07T19:31:53;20.40;26.30
19003;DHT22;9634;51.040;13.794;2022-08-07T19:37:00;20.30;26.60
19003;DHT22;9634;51.040;13.794;2022-08-07T19:42:07;20.10;27.30
19003;DHT22;9634;51.040;13.794;2022-08-07T19:47:15;19.90;27.30
19003;DHT22;9634;51.040;13.794;2022-08-07T19:52:23;19.70;27.50
19003;DHT22;9634;51.040;13.794;2022-08-07T19:57:28;19.50;28.20
19003;DHT22;9634;51.040;13.794;2022-08-07T20:02:40;19.40;29.00
19003;DHT22;9634;51.040;13.794;2022-08-07T20:07:46;19.10;29.50
19003;DHT22;9634;51.040;13.794;2022-08-07T20:12:50;18.90;30.30
19003;DHT22;9634;51.040;13.794;2022-08-07T20:17:56;18.80;31.00
19003;DHT22;9634;51.040;13.794;2022-08-07T20:23:01;18.70;32.20
19003;DHT22;9634;51.040;13.794;2022-08-07T20:28:08;18.60;33.00
19003;DHT22;9634;51.040;13.794;2022-08-07T20:33:14;18.70;34.10
19003;DHT22;9634;51.040;13.794;2022-08-07T20:38:18;18.80;34.10
19003;DHT22;9634;51.040;13.794;2022-08-07T20:43:24;18.50;35.40
19003;DHT22;9634;51.040;13.794;2022-08-07T20:48:31;18.20;36.90
19003;DHT22;9634;51.040;13.794;2022-08-07T20:53:34;17.90;38.40
19003;DHT22;9634;51.040;13.794;2022-08-07T20:58:40;17.80;40.00
19003;DHT22;9634;51.040;13.794;2022-08-07T21:03:46;17.80;41.50
19003;DHT22;9634;51.040;13.794;2022-08-07T21:08:55;17.70;41.90
19003;DHT22;9634;51.040;13.794;2022-08-07T21:14:04;17.50;43.80
19003;DHT22;9634;51.040;13.794;2022-08-07T21:19:10;17.40;45.70
19003;DHT22;9634;51.040;13.794;2022-08-07T21:24:20;17.40;46.30
19003;DHT22;9634;51.040;13.794;2022-08-07T21:29:29;17.30;47.90
19003;DHT22;9634;51.040;13.794;2022-08-07T21:34:38;17.10;50.10
19003;DHT22;9634;51.040;13.794;2022-08-07T21:39:51;17.00;52.50
19003;DHT22;9634;51.040;13.794;2022-08-07T21:44:58;16.90;55.50
19003;DHT22;9634;51.040;13.794;2022-08-07T21:50:09;16.80;58.50
19003;DHT22;9634;51.040;13.794;2022-08-07T21:55:19;16.60;61.10
19003;DHT22;9634;51.040;13.794;2022-08-07T22:00:23;16.40;65.90
19003;DHT22;9634;51.040;13.794;2022-08-07T22:05:29;16.50;68.30
19003;DHT22;9634;51.040;13.794;2022-08-07T22:10:32;16.30;71.30
19003;DHT22;9634;51.040;13.794;2022-08-07T22:15:40;16.30;74.60
19003;DHT22;9634;51.040;13.794;2022-08-07T22:20:51;16.30;76.50
19003;DHT22;9634;51.040;13.794;2022-08-07T22:26:04;16.30;79.40
19003;DHT22;9634;51.040;13.794;2022-08-07T22:31:16;16.30;83.20
19003;DHT22;9634;51.040;13.794;2022-08-07T22:36:33;16.10;86.50
19003;DHT22;9634;51.040;13.794;2022-08-07T22:41:39;16.10;90.90
19003;DHT22;9634;51.040;13.794;2022-08-07T22:47:03;16.10;92.40
19003;DHT22;9634;51.040;13.794;2022-08-07T22:52:26;16.00;93.80
19003;DHT22;9634;51.040;13.794;2022-08-07T22:57:44;15.80;96.00
19003;DHT22;9634;51.040;13.794;2022-08-07T23:02:59;15.70;98.10
19003;DHT22;9634;51.040;13.794;2022-08-07T23:08:21;15.70;98.70
19003;DHT22;9634;51.040;13.794;2022-08-07T23:18:57;15.50;99.90
19003;DHT22;9634;51.040;13.794;2022-08-07T23:24:35;15.40;99.90
19003;DHT22;9634;51.040;13.794;2022-08-07T23:29:56;15.30;99.90
19003;DHT22;9634;51.040;13.794;2022-08-07T23:35:11;15.20;99.90
19003;DHT22;9634;51.040;13.794;2022-08-07T23:40:28;15.10;99.90
19003;DHT22;9634;51.040;13.794;2022-08-07T23:45:37;15.10;99.90
19003;DHT22;9634;51.040;13.794;2022-08-07T23:50:45;15.00;99.90
19003;DHT22;9634;51.040;13.794;2022-08-07T23:56:03;14.90;99.90
